createdAt,value
2016-04-29T00:00:30.552Z,4.71
2016-04-29T00:01:29.492Z,4.77
2016-04-29T00:02:29.463Z,4.73
2016-04-29T00:03:29.435Z,4.7
2016-04-29T00:04:29.406Z,4.78
2016-04-29T00:05:29.377Z,4.68
2016-04-29T00:06:29.349Z,4.66
2016-04-29T00:07:29.320Z,4.73
2016-04-29T00:08:29.276Z,4.74
2016-04-29T00:09:29.247Z,4.82
2016-04-29T00:10:29.250Z,4.71
2016-04-29T00:11:29.191Z,4.68
2016-04-29T00:12:29.161Z,4.74
2016-04-29T00:13:29.147Z,4.74
2016-04-29T00:14:29.175Z,4.74
2016-04-29T00:15:29.404Z,4.77
2016-04-29T00:16:29.182Z,4.75
2016-04-29T00:17:29.192Z,4.75
2016-04-29T00:18:29.211Z,4.71
2016-04-29T00:19:29.181Z,4.74
2016-04-29T00:20:29.166Z,4.7
2016-04-29T00:21:29.152Z,4.75
2016-04-29T00:22:29.137Z,4.77
2016-04-29T00:23:29.120Z,4.68
2016-04-29T00:24:29.097Z,4.73
2016-04-29T00:25:29.057Z,4.71
2016-04-29T00:26:29.049Z,4.8
2016-04-29T00:27:29.025Z,4.82
2016-04-29T00:28:29.001Z,4.75
2016-04-29T00:29:29.131Z,4.71
2016-04-29T00:30:28.947Z,4.82
2016-04-29T00:31:28.921Z,4.84
2016-04-29T00:32:28.894Z,4.82
2016-04-29T00:33:28.852Z,4.9
2016-04-29T00:34:28.824Z,4.73
2016-04-29T00:35:28.796Z,4.84
2016-04-29T00:36:28.768Z,4.86
2016-04-29T00:37:28.740Z,4.86
2016-04-29T00:38:28.713Z,4.77
2016-04-29T00:39:28.701Z,4.84
2016-04-29T00:40:28.656Z,4.77
2016-04-29T00:41:28.628Z,4.84
2016-04-29T00:42:28.600Z,4.87
2016-04-29T00:43:28.571Z,4.77
2016-04-29T18:19:18.937Z,9.66
2016-04-29T18:20:19.081Z,9.65
2016-04-29T18:21:19.054Z,9.65
2016-04-29T18:22:19.025Z,9.62
2016-04-29T18:23:18.997Z,9.66
2016-04-29T18:24:18.968Z,9.76
2016-04-29T18:25:18.955Z,9.66
2016-04-29T22:35:27.059Z,9.48
2016-04-29T22:35:55.528Z,9.51
2016-04-29T22:36:55.655Z,9.51
2016-04-29T22:37:55.626Z,9.47
2016-04-29T22:38:55.598Z,9.55
2016-04-29T22:39:55.585Z,9.62
2016-04-29T22:40:55.557Z,9.44
2016-04-29T22:41:55.529Z,9.62
2016-04-29T22:42:55.500Z,9.43
2016-04-29T22:43:55.486Z,9.56
2016-04-29T22:44:55.458Z,9.44
2016-04-29T22:45:55.272Z,9.55
2016-04-29T22:46:55.416Z,9.59
2016-04-29T22:47:55.373Z,9.46
2016-04-29T22:48:55.359Z,9.5
2016-04-29T22:49:55.330Z,9.47
2016-04-29T22:50:55.302Z,9.43
2016-04-29T22:51:55.274Z,9.47
2016-04-29T22:52:55.104Z,9.5
2016-04-29T22:53:55.232Z,9.54
2016-04-29T22:54:55.205Z,9.58
2016-04-29T22:55:55.175Z,9.58
2016-04-29T22:56:55.146Z,9.64
2016-04-29T22:57:55.134Z,9.58
2016-04-29T22:58:55.105Z,9.47
2016-04-29T22:59:55.093Z,9.58
2016-04-29T23:00:55.049Z,9.58
2016-04-29T23:01:55.035Z,9.58
2016-04-29T23:02:55.006Z,9.59
2016-04-29T23:03:56.337Z,9.61
2016-04-29T23:04:54.949Z,9.58
2016-04-29T23:05:54.937Z,9.58
2016-04-29T23:06:54.924Z,9.64
2016-04-29T23:07:54.879Z,9.56
2016-04-29T23:08:54.850Z,9.58
2016-04-29T23:09:54.838Z,9.51
2016-04-29T23:10:54.810Z,9.59
2016-04-29T23:11:54.640Z,9.47
2016-04-29T23:12:54.753Z,9.59
2016-04-29T23:13:54.740Z,9.48
2016-04-29T23:14:54.554Z,9.46
2016-04-29T23:15:54.682Z,9.46
2016-04-29T23:16:54.654Z,9.43
2016-04-29T23:17:54.484Z,9.55
2016-04-29T23:18:54.503Z,9.56
2016-04-29T23:19:54.583Z,9.55
2016-04-29T23:20:54.399Z,9.54
2016-04-29T23:21:54.527Z,9.56
2016-04-29T23:22:54.513Z,9.55
2016-04-29T23:23:54.486Z,9.61
2016-04-29T23:24:54.456Z,9.55
2016-04-29T23:25:54.427Z,9.61
2016-04-29T23:26:54.430Z,9.59
2016-04-29T23:27:54.386Z,9.51
2016-04-29T23:28:54.358Z,9.48
2016-04-29T23:29:54.330Z,9.51
2016-04-29T23:30:54.160Z,9.51
2016-04-29T23:31:54.288Z,9.44
2016-04-29T23:32:54.103Z,9.55
2016-04-29T23:33:54.230Z,9.47
2016-04-29T23:34:54.202Z,9.43
2016-04-29T23:35:54.190Z,9.47
2016-04-29T23:36:54.160Z,9.46
2016-04-29T23:37:54.132Z,9.47
2016-04-29T23:38:54.118Z,9.5
2016-04-29T23:39:54.090Z,9.48
2016-04-29T23:40:54.062Z,9.48
2016-04-29T23:41:54.033Z,9.44
2016-04-29T23:42:54.004Z,9.54
2016-04-29T23:43:53.992Z,9.4
2016-04-29T23:44:53.948Z,9.48
2016-04-29T23:45:53.934Z,9.4
2016-04-29T23:46:53.906Z,9.32
2016-04-29T23:47:53.878Z,9.39
2016-04-29T23:48:53.865Z,9.37
2016-04-29T23:49:53.837Z,9.29
2016-04-29T23:50:53.651Z,9.36
2016-04-29T23:51:53.795Z,9.39
2016-04-29T23:52:53.750Z,9.28
2016-04-29T23:53:53.722Z,9.29
2016-04-29T23:54:53.709Z,9.29
2016-04-29T23:55:53.680Z,9.31
2016-04-29T23:56:53.652Z,9.34
2016-04-29T23:57:53.623Z,9.25
2016-04-29T23:58:53.610Z,9.22
2016-04-29T23:59:53.582Z,9.26
